createdAt,value
2022-11-09T00:00:48.862Z,11.98
2022-11-09T00:03:15.272Z,11.94
2022-11-09T00:05:41.715Z,11.96
2022-11-09T00:08:08.485Z,11.91
2022-11-09T00:10:34.797Z,11.87
2022-11-09T00:13:01.235Z,11.91
2022-11-09T00:15:27.607Z,11.80
2022-11-09T00:17:53.961Z,11.83
2022-11-09T00:20:20.274Z,11.83
2022-11-09T00:22:49.759Z,11.77
2022-11-09T00:25:16.149Z,11.83
2022-11-09T00:27:42.541Z,11.76
2022-11-09T00:30:10.476Z,11.71
2022-11-09T00:32:36.793Z,11.85
2022-11-09T00:35:03.160Z,11.83
2022-11-09T00:37:29.913Z,11.78
2022-11-09T00:39:56.496Z,11.83
2022-11-09T00:42:22.813Z,11.82
2022-11-09T00:44:49.141Z,11.77
2022-11-09T00:47:15.484Z,11.81
2022-11-09T00:49:41.814Z,11.92
2022-11-09T00:52:08.386Z,11.93
2022-11-09T00:54:34.784Z,11.89
2022-11-09T00:57:01.119Z,11.84
2022-11-09T00:59:27.436Z,11.85
2022-11-09T01:01:53.767Z,11.96
2022-11-09T01:04:20.152Z,11.94
2022-11-09T01:06:46.542Z,11.96
2022-11-09T01:09:12.905Z,11.96
2022-11-09T01:11:39.243Z,11.94
2022-11-09T01:14:05.559Z,11.98
2022-11-09T01:16:31.962Z,12.00
2022-11-09T01:18:58.360Z,11.93
2022-11-09T01:21:25.082Z,12.00
2022-11-09T01:23:51.403Z,11.99
2022-11-09T01:26:17.734Z,11.94
2022-11-09T01:28:44.072Z,11.95
2022-11-09T01:31:11.614Z,11.88
2022-11-09T01:33:39.251Z,11.80
2022-11-09T01:36:06.328Z,11.82
2022-11-09T01:38:32.668Z,11.87
2022-11-09T01:40:58.985Z,11.89
2022-11-09T01:43:25.355Z,11.85
2022-11-09T01:45:52.610Z,11.79
2022-11-09T01:48:20.296Z,11.85
2022-11-09T01:50:53.937Z,11.86
2022-11-09T01:53:21.142Z,11.81
2022-11-09T01:55:48.599Z,11.87
2022-11-09T01:58:16.044Z,11.87
2022-11-09T02:00:43.015Z,11.78
2022-11-09T02:03:10.553Z,11.84
2022-11-09T02:05:36.973Z,11.90
2022-11-09T02:08:03.321Z,11.90
2022-11-09T02:10:31.973Z,11.90
2022-11-09T02:12:58.305Z,11.86
2022-11-09T02:15:24.673Z,11.81
2022-11-09T02:17:54.811Z,11.84
2022-11-09T02:20:21.972Z,11.87
2022-11-09T02:22:48.292Z,11.90
2022-11-09T02:25:14.705Z,11.83
2022-11-09T02:27:41.404Z,11.83
2022-11-09T02:30:08.058Z,11.90
2022-11-09T02:32:34.430Z,11.86
2022-11-09T02:35:00.740Z,11.84
2022-11-09T02:37:27.149Z,11.90
2022-11-09T02:39:53.476Z,11.90
2022-11-09T02:42:21.612Z,11.89
2022-11-09T02:44:49.531Z,11.94
2022-11-09T02:47:15.855Z,12.00
2022-11-09T02:49:42.425Z,12.01
2022-11-09T02:52:08.749Z,12.04
2022-11-09T02:54:35.201Z,12.07
2022-11-09T02:57:01.542Z,12.03
2022-11-09T02:59:27.866Z,12.15
2022-11-09T03:01:54.193Z,12.12
2022-11-09T03:04:20.506Z,12.11
2022-11-09T03:06:46.896Z,12.09
2022-11-09T03:09:13.317Z,12.06
2022-11-09T03:11:39.990Z,12.07
2022-11-09T03:14:06.305Z,12.18
2022-11-09T03:16:32.730Z,12.09
2022-11-09T03:18:59.123Z,12.10
2022-11-09T03:21:25.451Z,12.12
2022-11-09T03:23:51.766Z,12.08
2022-11-09T03:26:18.134Z,12.12
2022-11-09T03:28:44.481Z,12.13
2022-11-09T03:31:11.106Z,12.09
2022-11-09T03:33:37.443Z,12.00
2022-11-09T03:36:03.910Z,12.02
2022-11-09T03:38:30.228Z,12.03
2022-11-09T03:40:56.567Z,12.05
2022-11-09T03:43:23.263Z,11.99
2022-11-09T03:45:49.841Z,11.99
2022-11-09T03:48:16.606Z,11.90
2022-11-09T03:50:43.222Z,11.97
2022-11-09T03:53:09.623Z,12.03
2022-11-09T03:55:36.034Z,12.07
2022-11-09T03:58:02.571Z,12.07
2022-11-09T04:00:28.952Z,12.04
2022-11-09T04:02:55.282Z,11.96
2022-11-09T04:05:21.625Z,11.97
2022-11-09T04:07:48.642Z,11.96
2022-11-09T04:10:15.323Z,11.94
2022-11-09T04:12:41.634Z,11.84
2022-11-09T04:15:08.178Z,11.81
2022-11-09T04:17:34.637Z,11.82
2022-11-09T04:20:01.868Z,11.87
2022-11-09T04:22:28.211Z,11.78
2022-11-09T04:24:54.519Z,11.71
2022-11-09T04:27:20.927Z,11.71
2022-11-09T04:29:47.255Z,11.66
2022-11-09T04:32:13.982Z,11.71
2022-11-09T04:34:41.670Z,11.63
2022-11-09T04:37:08.488Z,11.53
2022-11-09T04:39:34.797Z,11.64
2022-11-09T04:42:01.199Z,11.59
2022-11-09T04:44:27.524Z,11.66
2022-11-09T04:46:53.858Z,11.64
2022-11-09T04:49:20.175Z,11.67
2022-11-09T04:51:46.499Z,11.68
2022-11-09T04:54:12.856Z,11.59
2022-11-09T04:56:39.183Z,11.61
2022-11-09T04:59:05.521Z,11.58
2022-11-09T05:01:31.845Z,11.55
2022-11-09T05:03:58.250Z,11.58
2022-11-09T05:06:33.751Z,11.44
2022-11-09T05:09:06.688Z,11.40
2022-11-09T05:11:33.328Z,11.42
2022-11-09T05:14:00.817Z,11.47
2022-11-09T05:16:28.012Z,11.39
2022-11-09T05:18:54.334Z,11.32
2022-11-09T05:21:20.702Z,11.41
2022-11-09T05:23:59.275Z,11.32
2022-11-09T05:26:33.569Z,11.34
2022-11-09T05:29:00.627Z,11.28
2022-11-09T05:31:27.176Z,11.19
2022-11-09T05:33:53.598Z,11.19
2022-11-09T05:36:20.053Z,11.20
2022-11-09T05:38:46.486Z,11.19
2022-11-09T05:41:12.869Z,11.27
2022-11-09T05:43:39.243Z,11.20
2022-11-09T05:46:06.857Z,11.20
2022-11-09T05:48:33.330Z,11.34
2022-11-09T05:51:03.241Z,11.30
2022-11-09T05:53:29.870Z,11.29
2022-11-09T05:55:56.181Z,11.29
2022-11-09T05:58:22.556Z,11.34
2022-11-09T06:00:48.884Z,11.40
2022-11-09T06:03:15.236Z,11.28
2022-11-09T06:05:41.602Z,11.30
2022-11-09T06:08:08.900Z,11.30
2022-11-09T06:10:35.320Z,11.30
2022-11-09T06:13:01.742Z,11.21
2022-11-09T06:15:28.107Z,11.26
2022-11-09T06:17:54.794Z,11.20
2022-11-09T06:20:21.262Z,11.17
2022-11-09T06:22:58.676Z,11.19
2022-11-09T06:25:28.057Z,11.18
2022-11-09T06:27:55.004Z,11.19
2022-11-09T06:30:21.433Z,11.20
2022-11-09T06:32:47.754Z,11.11
2022-11-09T06:35:14.413Z,11.13
2022-11-09T06:37:40.788Z,11.06
2022-11-09T06:40:07.450Z,11.05
2022-11-09T06:42:33.786Z,11.04
2022-11-09T06:45:00.120Z,11.15
2022-11-09T06:47:27.522Z,11.05
2022-11-09T06:49:53.856Z,11.13
2022-11-09T06:52:20.195Z,11.10
2022-11-09T06:54:46.520Z,11.10
2022-11-09T06:57:12.899Z,11.12
2022-11-09T06:59:39.222Z,11.13
2022-11-09T07:02:05.564Z,11.10
2022-11-09T07:04:32.058Z,11.18
2022-11-09T07:06:58.433Z,11.20
2022-11-09T07:09:24.789Z,11.22
2022-11-09T07:11:51.111Z,11.31
2022-11-09T07:14:17.486Z,11.36
2022-11-09T07:16:43.815Z,11.42
2022-11-09T07:19:11.338Z,11.43
2022-11-09T07:21:37.708Z,11.44
2022-11-09T07:24:04.023Z,11.55
2022-11-09T07:26:30.444Z,11.66
2022-11-09T07:28:56.764Z,11.70
2022-11-09T07:31:23.217Z,11.76
2022-11-09T07:33:49.683Z,11.75
2022-11-09T07:36:21.171Z,11.74
2022-11-09T07:38:47.977Z,11.79
2022-11-09T07:41:14.302Z,11.81
2022-11-09T07:43:40.871Z,11.84
2022-11-09T07:46:07.268Z,11.82
2022-11-09T07:48:33.787Z,11.77
2022-11-09T07:51:00.818Z,11.81
2022-11-09T07:53:27.134Z,11.80
2022-11-09T07:55:57.385Z,11.73
2022-11-09T07:58:23.720Z,11.80
2022-11-09T08:00:50.078Z,11.66
2022-11-09T08:03:18.157Z,11.60
2022-11-09T08:05:44.999Z,11.57
2022-11-09T08:08:11.495Z,11.49
2022-11-09T08:10:37.925Z,11.51
2022-11-09T08:13:11.916Z,11.52
2022-11-09T08:15:38.510Z,11.49
2022-11-09T08:18:05.876Z,11.40
2022-11-09T08:20:32.479Z,11.46
2022-11-09T08:23:03.597Z,11.40
2022-11-09T08:25:30.993Z,11.37
2022-11-09T08:27:57.350Z,11.36
2022-11-09T08:30:23.803Z,11.35
2022-11-09T08:32:50.292Z,11.26
2022-11-09T08:35:18.301Z,11.28
2022-11-09T08:37:45.113Z,11.26
2022-11-09T08:40:11.438Z,11.22
2022-11-09T08:42:38.010Z,11.17
2022-11-09T08:45:04.632Z,11.18
2022-11-09T08:47:30.962Z,11.27
2022-11-09T08:49:57.328Z,11.15
2022-11-09T08:52:23.697Z,11.01
2022-11-09T08:54:50.013Z,11.05
2022-11-09T08:57:17.560Z,11.10
2022-11-09T08:59:43.902Z,11.10
2022-11-09T09:02:10.467Z,11.02
2022-11-09T09:04:36.817Z,11.13
2022-11-09T09:07:03.194Z,11.18
2022-11-09T09:09:29.609Z,11.06
2022-11-09T09:11:55.926Z,11.16
2022-11-09T09:14:22.237Z,11.29
2022-11-09T09:16:48.576Z,11.25
2022-11-09T09:19:14.913Z,11.17
2022-11-09T09:21:41.245Z,11.22
2022-11-09T09:24:07.754Z,11.20
2022-11-09T09:26:34.105Z,11.20
2022-11-09T09:29:00.575Z,11.32
2022-11-09T09:31:27.380Z,11.26
2022-11-09T09:33:53.712Z,11.22
2022-11-09T09:36:20.831Z,11.21
2022-11-09T09:38:47.305Z,11.25
2022-11-09T09:41:29.000Z,11.14
2022-11-09T09:43:56.850Z,11.19
2022-11-09T09:46:35.365Z,11.17
2022-11-09T09:49:03.720Z,11.18
2022-11-09T09:51:37.997Z,11.33
2022-11-09T09:54:12.536Z,11.24
2022-11-09T09:56:39.449Z,11.24
2022-11-09T09:59:18.372Z,11.29
2022-11-09T10:01:44.773Z,11.29
2022-11-09T10:04:18.319Z,11.56
2022-11-09T10:06:47.791Z,11.76
2022-11-09T10:09:32.971Z,11.86
2022-11-09T10:12:01.325Z,11.67
2022-11-09T10:14:33.940Z,11.97
2022-11-09T10:17:15.738Z,12.11
2022-11-09T10:19:48.068Z,12.18
2022-11-09T10:22:17.419Z,12.20
2022-11-09T10:27:36.531Z,12.83
2022-11-09T10:30:07.754Z,12.97
2022-11-09T10:32:34.121Z,13.25
2022-11-09T10:35:03.497Z,13.46
2022-11-09T10:37:43.454Z,13.58
2022-11-09T10:40:13.149Z,13.32
2022-11-09T10:42:39.502Z,13.66
2022-11-09T10:45:13.621Z,13.64
2022-11-09T10:47:50.561Z,13.97
2022-11-09T10:50:23.006Z,13.82
2022-11-09T10:52:49.422Z,13.40
2022-11-09T10:55:15.738Z,12.99
2022-11-09T10:57:50.293Z,13.02
2022-11-09T11:00:17.435Z,12.77
2022-11-09T11:02:45.236Z,12.65
2022-11-09T11:05:17.667Z,12.63
2022-11-09T11:07:44.240Z,12.60
2022-11-09T11:10:16.863Z,12.36
2022-11-09T11:12:43.568Z,12.45
2022-11-09T11:15:22.037Z,12.43
2022-11-09T11:17:48.591Z,12.53
2022-11-09T11:20:25.523Z,12.81
2022-11-09T11:22:55.912Z,13.20
2022-11-09T11:25:22.468Z,13.04
2022-11-09T11:27:50.409Z,13.11
2022-11-09T11:30:22.844Z,13.20
2022-11-09T11:32:50.912Z,13.34
2022-11-09T11:35:23.699Z,13.72
2022-11-09T11:37:56.012Z,13.58
2022-11-09T11:40:42.596Z,13.55
2022-11-09T11:43:15.151Z,13.25
2022-11-09T11:45:48.105Z,13.21
2022-11-09T11:48:32.811Z,13.23
2022-11-09T11:51:02.653Z,13.25
2022-11-09T11:53:33.247Z,13.52
2022-11-09T11:56:02.605Z,13.67
2022-11-09T11:58:29.120Z,14.02
2022-11-09T12:00:58.769Z,14.13
2022-11-09T12:04:00.692Z,14.29
2022-11-09T12:06:45.515Z,14.40
2022-11-09T12:09:11.839Z,14.65
2022-11-09T12:11:51.111Z,14.79
2022-11-09T12:14:33.161Z,14.35
2022-11-09T12:17:07.032Z,14.18
2022-11-09T12:19:45.734Z,14.20
2022-11-09T12:22:18.178Z,14.57
2022-11-09T12:25:09.696Z,14.43
2022-11-09T12:27:50.599Z,14.63
2022-11-09T12:30:40.368Z,14.85
2022-11-09T12:33:14.270Z,14.85
2022-11-09T12:35:45.841Z,14.75
2022-11-09T12:38:12.186Z,14.42
2022-11-09T12:41:02.207Z,14.45
2022-11-09T12:43:45.725Z,14.09
2022-11-09T12:46:12.046Z,13.97
2022-11-09T12:48:38.360Z,14.02
2022-11-09T12:51:04.746Z,14.10
2022-11-09T12:53:35.142Z,14.18
2022-11-09T12:56:02.682Z,14.13
2022-11-09T12:58:32.464Z,14.01
2022-11-09T13:00:59.839Z,14.10
2022-11-09T13:03:27.588Z,13.97
2022-11-09T13:06:20.330Z,13.99
2022-11-09T13:09:07.520Z,13.86
2022-11-09T13:11:41.303Z,13.87
2022-11-09T13:14:22.903Z,13.96
2022-11-09T13:16:49.643Z,13.78
2022-11-09T13:19:34.711Z,13.81
2022-11-09T13:22:23.729Z,13.70
2022-11-09T13:24:50.031Z,13.76
2022-11-09T13:27:36.617Z,13.77
2022-11-09T13:30:03.219Z,13.81
2022-11-09T13:32:30.041Z,13.66
2022-11-09T13:34:59.784Z,13.60
2022-11-09T13:37:34.783Z,13.57
2022-11-09T13:40:01.099Z,13.46
2022-11-09T13:42:30.523Z,13.46
2022-11-09T13:45:17.588Z,13.49
2022-11-09T13:47:49.669Z,13.31
2022-11-09T13:50:19.482Z,13.19
2022-11-09T13:52:52.701Z,13.25
2022-11-09T13:55:39.302Z,13.18
2022-11-09T13:58:15.929Z,13.15
2022-11-09T14:00:44.979Z,13.05
2022-11-09T14:03:24.916Z,13.01
2022-11-09T14:05:52.406Z,12.96
2022-11-09T14:08:20.922Z,12.84
2022-11-09T14:11:13.759Z,12.83
2022-11-09T14:13:40.051Z,12.89
2022-11-09T14:16:09.332Z,12.79
2022-11-09T14:18:55.116Z,12.76
2022-11-09T14:21:24.669Z,12.94
2022-11-09T14:23:51.092Z,12.95
2022-11-09T14:26:18.766Z,12.86
2022-11-09T14:28:45.098Z,12.89
2022-11-09T14:31:24.502Z,12.85
2022-11-09T14:34:04.002Z,12.78
2022-11-09T14:36:30.551Z,12.74
2022-11-09T14:38:58.447Z,12.36
2022-11-09T14:41:25.646Z,12.51
2022-11-09T14:43:52.398Z,12.55
2022-11-09T14:46:19.705Z,12.39
2022-11-09T14:48:56.256Z,12.39
2022-11-09T14:51:24.494Z,12.51
2022-11-09T14:53:50.921Z,12.51
2022-11-09T14:56:18.275Z,12.47
2022-11-09T14:58:44.667Z,12.32
2022-11-09T15:01:17.055Z,12.30
2022-11-09T15:03:43.865Z,12.19
2022-11-09T15:06:14.013Z,12.20
2022-11-09T15:08:50.722Z,12.24
2022-11-09T15:11:17.056Z,12.27
2022-11-09T15:13:43.374Z,12.25
2022-11-09T15:16:13.279Z,12.22
2022-11-09T15:18:42.114Z,12.02
2022-11-09T15:21:32.616Z,11.68
2022-11-09T15:24:08.275Z,11.40
2022-11-09T15:26:43.187Z,11.34
2022-11-09T15:29:28.405Z,11.06
2022-11-09T15:32:01.515Z,11.17
2022-11-09T15:34:29.688Z,11.15
2022-11-09T15:36:56.017Z,11.39
2022-11-09T15:39:22.675Z,11.48
2022-11-09T15:41:49.002Z,11.13
2022-11-09T15:44:15.399Z,11.67
2022-11-09T15:46:43.811Z,11.43
2022-11-09T15:49:13.746Z,11.13
2022-11-09T15:51:40.075Z,11.01
2022-11-09T15:54:06.384Z,10.98
2022-11-09T15:56:32.735Z,10.98
2022-11-09T15:59:00.091Z,10.98
2022-11-09T16:01:26.535Z,11.48
2022-11-09T16:03:52.862Z,11.49
2022-11-09T16:06:19.331Z,11.48
2022-11-09T16:08:49.007Z,11.34
2022-11-09T16:11:15.337Z,11.16
2022-11-09T16:13:41.661Z,11.20
2022-11-09T16:16:08.353Z,10.81
2022-11-09T16:18:34.696Z,11.09
2022-11-09T16:21:08.368Z,11.06
2022-11-09T16:23:35.252Z,10.83
2022-11-09T16:26:05.704Z,10.72
2022-11-09T16:28:32.257Z,10.53
2022-11-09T16:30:58.589Z,10.54
2022-11-09T16:33:24.911Z,10.67
2022-11-09T16:35:51.270Z,10.61
2022-11-09T16:38:17.804Z,10.70
2022-11-09T16:40:44.410Z,10.69
2022-11-09T16:43:10.743Z,10.64
2022-11-09T16:45:37.124Z,10.55
2022-11-09T16:48:04.105Z,10.60
2022-11-09T16:50:30.434Z,10.45
2022-11-09T16:52:56.886Z,10.44
2022-11-09T16:55:23.256Z,10.60
2022-11-09T16:57:50.102Z,10.95
2022-11-09T17:00:19.678Z,10.89
2022-11-09T17:02:45.998Z,11.00
2022-11-09T17:05:12.327Z,10.94
2022-11-09T17:07:42.767Z,11.04
2022-11-09T17:10:09.543Z,11.09
2022-11-09T17:12:35.887Z,11.34
2022-11-09T17:15:02.240Z,11.16
2022-11-09T17:17:28.599Z,11.12
2022-11-09T17:19:54.924Z,10.99
2022-11-09T17:22:21.337Z,10.99
2022-11-09T17:24:47.711Z,10.83
2022-11-09T17:27:14.044Z,10.81
2022-11-09T17:29:40.357Z,10.74
2022-11-09T17:32:07.302Z,11.00
2022-11-09T17:34:33.692Z,11.09
2022-11-09T17:37:05.043Z,11.15
2022-11-09T17:39:32.013Z,11.20
2022-11-09T17:41:58.341Z,11.03
2022-11-09T17:44:24.674Z,11.07
2022-11-09T17:46:51.004Z,11.22
2022-11-09T17:49:17.314Z,11.27
2022-11-09T17:51:43.655Z,10.87
2022-11-09T17:54:09.982Z,10.83
2022-11-09T17:56:36.332Z,10.60
2022-11-09T17:59:03.394Z,10.47
2022-11-09T18:01:29.997Z,10.44
2022-11-09T18:03:56.422Z,10.13
2022-11-09T18:06:23.110Z,10.05
2022-11-09T18:09:09.561Z,10.03
2022-11-09T18:11:35.829Z,10.09
2022-11-09T18:14:02.553Z,10.53
2022-11-09T18:16:28.900Z,10.61
2022-11-09T18:19:01.812Z,10.70
2022-11-09T18:21:28.624Z,10.84
2022-11-09T18:23:55.361Z,10.72
2022-11-09T18:26:21.698Z,10.65
2022-11-09T18:28:48.030Z,10.67
2022-11-09T18:31:14.493Z,10.83
2022-11-09T18:33:40.995Z,10.77
2022-11-09T18:36:09.144Z,10.77
2022-11-09T18:38:36.163Z,11.04
2022-11-09T18:41:09.994Z,10.90
2022-11-09T18:43:36.318Z,11.00
2022-11-09T18:46:03.762Z,10.83
2022-11-09T18:48:30.319Z,10.75
2022-11-09T18:50:56.943Z,10.80
2022-11-09T18:53:25.127Z,10.91
2022-11-09T18:55:51.513Z,10.84
2022-11-09T18:58:18.035Z,10.81
2022-11-09T19:00:44.634Z,10.80
2022-11-09T19:03:14.820Z,10.89
2022-11-09T19:05:44.217Z,10.87
2022-11-09T19:08:10.569Z,10.81
2022-11-09T19:10:36.909Z,10.77
2022-11-09T19:13:03.630Z,10.79
2022-11-09T19:15:30.072Z,10.78
2022-11-09T19:17:56.466Z,10.67
2022-11-09T19:20:22.853Z,10.71
2022-11-09T19:22:49.255Z,10.66
2022-11-09T19:25:15.597Z,10.61
2022-11-09T19:27:42.014Z,10.57
2022-11-09T19:30:09.758Z,10.64
2022-11-09T19:32:36.328Z,10.59
2022-11-09T19:35:02.766Z,10.72
2022-11-09T19:37:29.227Z,10.71
2022-11-09T19:39:55.611Z,10.56
2022-11-09T19:42:21.983Z,10.56
2022-11-09T19:44:52.224Z,10.58
2022-11-09T19:47:22.486Z,10.44
2022-11-09T19:49:48.811Z,10.31
2022-11-09T19:52:15.148Z,10.27
2022-11-09T19:54:43.231Z,10.11
2022-11-09T19:57:09.578Z,10.36
2022-11-09T19:59:35.898Z,10.29
2022-11-09T20:02:02.346Z,10.35
2022-11-09T20:04:28.755Z,10.34
2022-11-09T20:06:55.130Z,10.54
2022-11-09T20:09:21.459Z,10.56
2022-11-09T20:12:06.660Z,10.51
2022-11-09T20:14:33.034Z,10.50
2022-11-09T20:17:03.429Z,10.62
2022-11-09T20:19:30.102Z,10.57
2022-11-09T20:21:56.471Z,10.61
2022-11-09T20:24:22.802Z,10.55
2022-11-09T20:26:49.148Z,10.47
2022-11-09T20:29:15.572Z,10.46
2022-11-09T20:31:41.977Z,10.47
2022-11-09T20:34:08.375Z,10.47
2022-11-09T20:36:35.136Z,10.39
2022-11-09T20:39:01.465Z,10.51
2022-11-09T20:41:27.929Z,10.47
2022-11-09T20:43:54.302Z,10.30
2022-11-09T20:46:21.512Z,10.21
2022-11-09T20:48:53.987Z,10.25
2022-11-09T20:51:21.180Z,10.19
2022-11-09T20:53:47.917Z,10.19
2022-11-09T20:56:14.338Z,10.28
2022-11-09T20:58:40.683Z,10.21
2022-11-09T21:01:07.104Z,10.29
2022-11-09T21:03:33.530Z,10.21
2022-11-09T21:06:00.087Z,10.16
2022-11-09T21:08:26.459Z,10.17
2022-11-09T21:10:52.868Z,10.06
2022-11-09T21:13:19.226Z,9.93
2022-11-09T21:15:45.596Z,9.89
2022-11-09T21:18:11.927Z,9.96
2022-11-09T21:20:38.319Z,10.00
2022-11-09T21:23:13.784Z,9.99
2022-11-09T21:25:59.063Z,10.02
2022-11-09T21:28:44.059Z,9.97
2022-11-09T21:31:10.380Z,10.08
2022-11-09T21:33:36.758Z,10.12
2022-11-09T21:36:09.969Z,10.14
2022-11-09T21:38:36.907Z,10.19
2022-11-09T21:41:24.238Z,10.22
2022-11-09T21:43:53.999Z,10.34
2022-11-09T21:46:20.306Z,10.26
2022-11-09T21:48:46.629Z,10.17
2022-11-09T21:51:12.969Z,10.17
2022-11-09T21:53:39.290Z,10.29
2022-11-09T21:56:06.125Z,10.24
2022-11-09T21:58:32.454Z,10.23
2022-11-09T22:01:02.306Z,10.32
2022-11-09T22:03:28.680Z,10.29
2022-11-09T22:05:54.996Z,10.38
2022-11-09T22:08:21.456Z,10.47
2022-11-09T22:10:47.816Z,10.46
2022-11-09T22:13:32.941Z,10.39
2022-11-09T22:16:07.863Z,10.27
2022-11-09T22:18:53.049Z,10.30
2022-11-09T22:21:19.623Z,10.41
2022-11-09T22:23:45.942Z,10.36
2022-11-09T22:26:12.315Z,10.33
2022-11-09T22:28:38.634Z,10.26
2022-11-09T22:31:05.202Z,10.16
2022-11-09T22:33:32.187Z,10.06
2022-11-09T22:35:59.740Z,10.06
2022-11-09T22:38:26.070Z,10.03
2022-11-09T22:40:52.546Z,10.11
2022-11-09T22:43:19.086Z,10.11
2022-11-09T22:45:45.537Z,10.08
2022-11-09T22:48:11.877Z,10.10
2022-11-09T22:50:38.259Z,10.11
2022-11-09T22:53:04.595Z,9.99
2022-11-09T22:55:30.924Z,9.97
2022-11-09T22:57:57.256Z,10.02
2022-11-09T23:00:23.589Z,10.13
2022-11-09T23:02:49.935Z,10.06
2022-11-09T23:05:16.272Z,10.10
2022-11-09T23:07:42.665Z,10.16
2022-11-09T23:10:10.273Z,10.12
2022-11-09T23:12:36.606Z,10.12
2022-11-09T23:15:06.137Z,10.18
2022-11-09T23:17:54.280Z,10.24
2022-11-09T23:20:20.915Z,10.14
2022-11-09T23:22:47.345Z,10.17
2022-11-09T23:25:32.549Z,10.13
2022-11-09T23:27:59.215Z,10.10
2022-11-09T23:30:25.581Z,10.09
2022-11-09T23:32:52.005Z,10.07
2022-11-09T23:35:18.480Z,10.16
2022-11-09T23:37:44.828Z,10.02
2022-11-09T23:40:11.376Z,10.06
2022-11-09T23:42:38.287Z,10.03
2022-11-09T23:45:04.793Z,10.03
2022-11-09T23:47:31.127Z,9.97
2022-11-09T23:49:57.456Z,10.03
2022-11-09T23:52:24.111Z,10.05
2022-11-09T23:54:50.428Z,10.04
2022-11-09T23:57:16.887Z,10.01
2022-11-09T23:59:43.212Z,10.13
